Time;durP1;ratioP1;P1;durP2;ratioP2;P2;SDS_P1;SDS_P2;PMS_P1;PMS_P2;Temp;Humidity;BMP_temperature;BMP_pressure;BME280_temperature;BME280_humidity;BME280_pressure;Samples;Min_cycle;Max_cycle;Signal;HPM_P1;HPM_P2
2023/05/17 00:01:08;;;;;;;2.80;1.20;;;8.70;99.90;;;-141.84;60.02;19795.53;5031651;28;20292;-73
2023/05/17 00:03:36;;;;;;;3.67;1.20;;;8.60;99.90;;;-141.84;60.94;19765.06;5031469;28;20232;-74
2023/05/17 00:06:06;;;;;;;2.13;1.20;;;8.50;99.90;;;-141.84;61.17;19813.84;5031552;28;20240;-74
2023/05/17 00:08:35;;;;;;;4.77;1.50;;;8.50;99.90;;;-141.84;61.51;19756.94;5031716;28;20567;-74
2023/05/17 00:11:03;;;;;;;7.20;1.53;;;8.40;99.90;;;-141.84;61.62;19791.47;5051480;28;20293;-75
2023/05/17 00:13:31;;;;;;;3.27;1.53;;;8.40;99.90;;;-141.84;61.62;19797.59;5053996;28;20623;-73
2023/05/17 00:15:59;;;;;;;3.03;1.40;;;8.40;99.90;;;-141.84;62.40;19765.06;5041369;28;20206;-74
2023/05/17 00:18:27;;;;;;;4.10;1.60;;;8.40;99.90;;;-141.84;62.82;19754.91;5054088;28;20244;-74
2023/05/17 00:20:56;;;;;;;3.93;1.83;;;8.30;99.90;;;-141.84;62.61;19752.88;5054874;28;20246;-74
2023/05/17 00:23:25;;;;;;;3.70;1.77;;;8.30;99.90;;;-141.84;62.09;19793.50;5039579;28;20637;-73
2023/05/17 00:25:53;;;;;;;6.13;1.30;;;8.20;99.90;;;-141.84;62.40;19787.41;5034736;28;20616;-73
2023/05/17 00:28:21;;;;;;;3.60;1.77;;;8.20;99.90;;;-141.84;62.65;19773.19;5034774;28;20310;-73
2023/05/17 00:30:50;;;;;;;2.50;1.20;;;8.20;99.90;;;-141.84;62.51;19769.13;5070335;28;20200;-74
2023/05/17 00:33:18;;;;;;;3.83;1.57;;;8.20;99.90;;;-141.84;62.70;19722.38;5055810;28;20320;-73
2023/05/17 00:35:46;;;;;;;2.83;1.50;;;8.20;99.90;;;-141.84;63.54;19724.41;5054752;28;20225;-74
2023/05/17 00:38:15;;;;;;;3.20;1.57;;;8.10;99.90;;;-141.84;64.09;19724.41;5054515;28;20293;-73
2023/05/17 00:40:44;;;;;;;4.03;1.73;;;8.10;99.90;;;-141.84;64.21;19673.59;5054630;28;20329;-73
2023/05/17 00:43:12;;;;;;;4.57;1.80;;;8.00;99.90;;;-141.84;63.30;19748.81;5054423;28;20201;-73
2023/05/17 00:45:41;;;;;;;2.57;2.13;;;8.00;99.90;;;-141.84;63.76;19722.38;5054023;28;20240;-73
2023/05/17 00:48:09;;;;;;;4.67;2.00;;;8.00;99.90;;;-141.84;63.94;19724.41;5054056;28;20295;-74
2023/05/17 00:50:38;;;;;;;2.87;1.73;;;8.00;99.90;;;-141.84;64.32;19720.34;5041488;28;20292;-74
2023/05/17 00:53:06;;;;;;;2.00;1.60;;;7.90;99.90;;;-141.84;64.47;19704.09;5052165;28;20221;-72
2023/05/17 00:55:35;;;;;;;6.50;1.83;;;7.90;99.90;;;-141.84;64.60;19689.88;5054175;28;20206;-73
2023/05/17 00:58:04;;;;;;;6.60;1.90;;;7.80;99.90;;;-141.84;64.73;19724.41;5054000;28;20205;-73
2023/05/17 01:00:33;;;;;;;4.03;1.90;;;7.90;99.90;;;-141.84;64.31;19695.97;5069393;28;20240;-72
2023/05/17 01:03:01;;;;;;;3.57;1.67;;;7.80;99.90;;;-141.84;65.21;19698.00;5074197;28;20302;-73
2023/05/17 01:05:30;;;;;;;2.60;1.70;;;7.80;99.90;;;-141.84;64.92;19691.91;5074100;28;20204;-74
2023/05/17 01:07:58;;;;;;;3.47;1.90;;;7.80;99.90;;;-141.84;65.46;19695.97;5074019;28;20283;-73
2023/05/17 01:10:36;;;;;;;4.03;1.60;;;7.70;99.90;;;-141.84;65.70;19669.53;5073858;28;20196;-56
2023/05/17 01:13:15;;;;;;;5.97;1.93;;;7.70;99.90;;;-141.84;66.41;19643.13;5061181;28;20202;-57
2023/05/17 01:15:51;;;;;;;3.63;1.83;;;7.60;99.90;;;-141.84;66.23;19665.47;5033704;28;20205;-57
2023/05/17 01:18:31;;;;;;;4.33;2.20;;;7.60;99.90;;;-141.84;66.07;19702.06;5037634;28;20266;-58
2023/05/17 01:21:01;;;;;;;2.93;2.20;;;7.70;99.90;;;-141.84;66.26;19659.38;5054046;28;20209;-54
2023/05/17 01:23:46;;;;;;;4.73;2.40;;;7.70;99.90;;;-141.84;66.30;19665.47;5052383;28;20235;-56
2023/05/17 01:26:20;;;;;;;4.60;1.83;;;7.60;99.90;;;-141.84;66.68;19691.91;5053653;28;20188;-57
2023/05/17 01:28:56;;;;;;;5.03;2.00;;;7.60;99.90;;;-141.84;66.54;19677.66;5054445;28;20223;-55
2023/05/17 01:31:26;;;;;;;4.60;2.07;;;7.60;99.90;;;-141.84;67.24;19671.56;5070409;28;20186;-56
2023/05/17 01:33:56;;;;;;;6.40;2.50;;;7.60;99.90;;;-141.84;67.54;19651.25;5053681;28;20255;-54
2023/05/17 01:36:25;;;;;;;3.70;2.37;;;7.50;99.90;;;-141.84;67.88;19665.47;5053711;28;20190;-57
2023/05/17 01:38:53;;;;;;;4.90;2.63;;;7.60;99.90;;;-141.84;68.50;19628.91;5053176;28;20198;-57
2023/05/17 01:41:36;;;;;;;3.70;2.03;;;7.40;99.90;;;-141.84;68.57;19637.03;5052871;28;20741;-57
2023/05/17 01:44:17;;;;;;;4.20;1.97;;;7.40;99.90;;;-141.84;68.52;19604.50;5053279;28;20253;-56
2023/05/17 01:46:46;;;;;;;2.17;1.97;;;7.30;99.90;;;-141.84;69.10;19647.19;5042750;28;20202;-72
2023/05/17 01:49:23;;;;;;;6.23;2.27;;;7.30;99.90;;;-141.84;69.28;19632.97;5033421;28;20256;-74
2023/05/17 01:52:03;;;;;;;4.43;2.07;;;7.30;99.90;;;-141.84;69.59;19639.06;5041291;28;20262;-72
2023/05/17 01:54:47;;;;;;;3.80;1.90;;;7.20;99.90;;;-141.84;69.73;19614.66;5053981;28;20233;-73
2023/05/17 01:57:18;;;;;;;6.20;2.57;;;7.20;99.90;;;-141.84;70.25;19598.41;5054409;28;20186;-72
2023/05/17 01:59:49;;;;;;;4.30;2.60;;;7.20;99.90;;;-141.84;70.17;19614.66;5063252;28;20239;-72
2023/05/17 02:02:21;;;;;;;6.27;2.63;;;7.10;99.90;;;-141.84;70.20;19604.50;5074024;28;20546;-71
2023/05/17 02:04:50;;;;;;;4.17;2.60;;;7.20;99.90;;;-141.84;70.20;19622.81;5074477;28;20199;-71
2023/05/17 02:07:18;;;;;;;3.77;2.67;;;7.10;99.90;;;-141.84;70.73;19596.38;5074559;28;20296;-71
2023/05/17 02:09:46;;;;;;;4.03;3.10;;;7.10;99.90;;;-141.84;70.88;19606.53;5053709;28;20226;-73
2023/05/17 02:12:15;;;;;;;4.17;2.70;;;7.10;99.90;;;-141.84;71.00;19598.41;5034042;28;20280;-72
2023/05/17 02:14:43;;;;;;;4.40;2.87;;;7.10;99.90;;;-141.84;71.19;19594.34;5033552;28;20669;-71
2023/05/17 02:17:13;;;;;;;3.87;3.07;;;7.10;99.90;;;-141.84;71.25;19626.88;5033854;28;20228;-72
2023/05/17 02:19:41;;;;;;;4.10;2.50;;;7.10;99.90;;;-141.84;71.48;19610.59;5034001;28;20256;-72
2023/05/17 02:22:10;;;;;;;5.07;3.27;;;7.00;99.90;;;-141.84;71.43;19586.22;5033548;28;20585;-71
2023/05/17 02:24:38;;;;;;;4.47;2.50;;;7.00;99.90;;;-141.84;71.04;19596.38;5033090;28;20206;-72
2023/05/17 02:27:06;;;;;;;5.40;2.87;;;7.00;99.90;;;-141.84;71.15;19569.97;5033568;28;20206;-72
2023/05/17 02:29:34;;;;;;;3.90;2.57;;;7.00;99.90;;;-141.84;71.62;19553.72;5047596;28;20572;-73
2023/05/17 02:32:03;;;;;;;4.73;2.70;;;7.00;99.90;;;-141.84;71.83;19586.22;5064625;28;20229;-73
2023/05/17 02:34:32;;;;;;;5.47;2.97;;;6.90;99.90;;;-141.84;71.85;19561.84;5053059;28;20622;-72
2023/05/17 02:37:01;;;;;;;6.80;2.90;;;6.90;99.90;;;-141.84;71.46;19592.31;5052478;28;20358;-74
2023/05/17 02:39:30;;;;;;;6.37;3.00;;;6.80;99.90;;;-141.84;71.42;19600.44;5052340;28;20271;-73
2023/05/17 02:41:58;;;;;;;7.27;2.90;;;6.90;99.90;;;-141.84;72.25;19578.09;5048755;28;20741;-71
2023/05/17 02:44:26;;;;;;;4.53;2.50;;;6.80;99.90;;;-141.84;72.77;19574.03;5032467;28;20228;-72
2023/05/17 02:46:54;;;;;;;4.70;2.30;;;6.70;99.90;;;-141.84;72.81;19513.06;5031881;28;20210;-72
2023/05/17 02:49:22;;;;;;;4.43;2.57;;;6.70;99.90;;;-141.84;72.98;19549.63;5032051;28;20252;-72
2023/05/17 02:51:52;;;;;;;7.13;3.57;;;6.70;99.90;;;-141.84;72.49;19537.44;5039843;28;20205;-71
2023/05/17 02:54:20;;;;;;;4.43;2.80;;;6.70;99.90;;;-141.84;72.76;19561.84;5051895;28;20228;-72
2023/05/17 02:56:49;;;;;;;3.93;2.87;;;6.70;99.90;;;-141.84;73.06;19535.41;5051973;28;20292;-73
2023/05/17 02:59:17;;;;;;;4.73;2.73;;;6.70;99.90;;;-141.84;73.07;19549.63;5056756;28;20310;-71
2023/05/17 03:01:45;;;;;;;7.10;3.27;;;6.70;99.90;;;-141.84;73.89;19509.00;5071758;28;20292;-74
2023/05/17 03:04:13;;;;;;;6.43;3.27;;;6.60;99.90;;;-141.84;73.69;19547.59;5072061;28;20204;-73
2023/05/17 03:06:41;;;;;;;5.70;3.30;;;6.60;99.90;;;-141.84;73.91;19578.09;5040908;28;20202;-72
2023/05/17 03:09:11;;;;;;;6.33;4.60;;;6.60;99.90;;;-141.84;73.41;19598.41;5032099;28;20241;-72
2023/05/17 03:11:39;;;;;;;7.50;4.00;;;6.70;99.90;;;-141.84;73.08;19588.25;5031824;28;20284;-71
2023/05/17 03:14:07;;;;;;;6.60;4.10;;;6.70;99.90;;;-141.84;73.41;19517.13;5031771;28;20217;-71
2023/05/17 03:16:35;;;;;;;6.23;3.83;;;6.70;99.90;;;-141.84;73.99;19531.34;5031678;28;20281;-74
2023/05/17 03:19:03;;;;;;;5.13;3.27;;;6.60;99.90;;;-141.84;74.01;19563.88;5031898;28;20624;-73
2023/05/17 03:21:32;;;;;;;6.53;3.20;;;6.60;99.90;;;-141.84;73.00;19565.91;5031498;28;20226;-73
2023/05/17 03:24:00;;;;;;;5.43;3.93;;;6.70;99.90;;;-141.84;73.89;19545.56;5031344;28;20708;-73
2023/05/17 03:26:30;;;;;;;5.70;4.20;;;6.70;99.90;;;-141.84;73.80;19533.38;5031665;28;20263;-72
2023/05/17 03:28:59;;;;;;;5.17;3.63;;;6.60;99.90;;;-141.84;73.85;19567.94;5036632;28;20251;-72
2023/05/17 03:31:27;;;;;;;8.13;4.07;;;6.70;99.90;;;-141.84;74.03;19574.03;5068011;28;20224;-72
2023/05/17 03:33:56;;;;;;;6.70;3.00;;;6.60;99.90;;;-141.84;74.15;19517.13;5052081;28;20188;-73
2023/05/17 03:36:24;;;;;;;6.83;3.77;;;6.60;99.90;;;-141.84;74.02;19551.69;5051574;28;20244;-73
2023/05/17 03:38:52;;;;;;;4.73;3.20;;;6.60;99.90;;;-141.84;74.17;19525.25;5050935;28;20288;-73
2023/05/17 03:41:21;;;;;;;6.53;3.60;;;6.70;99.90;;;-141.84;74.53;19513.06;5051285;28;20307;-72
2023/05/17 03:43:50;;;;;;;7.37;3.30;;;6.70;99.90;;;-141.84;74.37;19535.41;5053398;28;20307;-72
2023/05/17 03:46:18;;;;;;;5.17;3.57;;;6.70;99.90;;;-141.84;74.36;19515.09;5051361;28;20304;-72
2023/05/17 03:48:47;;;;;;;7.17;3.93;;;6.70;99.90;;;-141.84;74.17;19525.25;5055260;28;20235;-72
2023/05/17 03:51:15;;;;;;;6.60;4.57;;;6.70;99.90;;;-141.84;74.15;19559.81;5055187;28;20415;-73
2023/05/17 03:53:44;;;;;;;5.47;4.53;;;6.70;99.90;;;-141.84;73.91;19541.50;5055319;28;20575;-74
2023/05/17 03:56:12;;;;;;;7.60;4.37;;;6.70;99.90;;;-141.84;74.03;19551.69;5054872;28;20598;-72
2023/05/17 03:58:40;;;;;;;6.47;4.83;;;6.70;99.90;;;-141.84;73.66;19531.34;5055889;28;20301;-72
2023/05/17 04:01:10;;;;;;;8.60;4.97;;;6.80;99.90;;;-141.84;73.50;19533.38;5078761;28;20310;-74
2023/05/17 04:03:38;;;;;;;7.87;5.60;;;6.80;99.90;;;-141.84;73.00;19594.34;5057543;28;20292;-71
2023/05/17 04:06:07;;;;;;;8.80;5.53;;;6.90;99.90;;;-141.84;72.51;19596.38;5055024;28;20209;-72
2023/05/17 04:08:35;;;;;;;8.97;5.37;;;7.00;99.90;;;-141.84;71.95;19622.81;5054816;28;20299;-72
2023/05/17 04:11:09;;;;;;;7.67;4.50;;;7.10;99.90;;;-141.84;72.09;19590.28;5055181;28;20300;-73
2023/05/17 04:13:38;;;;;;;6.87;4.80;;;7.30;99.90;;;-141.84;70.94;19632.97;5055538;28;20200;-71
2023/05/17 04:16:09;;;;;;;9.43;5.43;;;7.40;99.90;;;-141.84;70.28;19637.03;5040307;28;20245;-55
2023/05/17 04:18:38;;;;;;;7.50;4.60;;;7.40;99.90;;;-141.84;70.86;19643.13;5035143;28;20193;-57
2023/05/17 04:21:07;;;;;;;6.20;4.40;;;7.50;99.90;;;-141.84;70.98;19598.41;5034853;28;20232;-58
2023/05/17 04:23:35;;;;;;;6.17;4.03;;;7.50;99.90;;;-141.84;71.29;19610.59;5034341;28;20678;-58
2023/05/17 04:26:04;;;;;;;7.73;3.67;;;7.60;99.90;;;-141.84;71.28;19620.78;5034533;28;20708;-58
2023/05/17 04:28:33;;;;;;;5.97;3.73;;;7.70;99.90;;;-141.84;70.06;19681.75;5034417;28;20686;-58
2023/05/17 04:31:02;;;;;;;5.60;3.37;;;7.70;99.90;;;-141.84;70.11;19673.59;5053727;28;20209;-58
2023/05/17 04:33:32;;;;;;;5.73;3.23;;;7.80;99.90;;;-141.84;70.53;19661.41;5034182;28;20330;-58
2023/05/17 04:36:00;;;;;;;6.67;3.10;;;7.90;99.90;;;-141.84;69.25;19663.44;5049906;28;20219;-58
2023/05/17 04:38:29;;;;;;;7.83;3.40;;;8.00;99.90;;;-141.84;68.47;19716.28;5054186;28;20205;-58
2023/05/17 04:41:03;;;;;;;7.20;3.27;;;8.20;99.90;;;-141.84;68.60;19716.28;5054256;28;20308;-57
2023/05/17 04:43:32;;;;;;;4.17;3.27;;;8.30;99.90;;;-141.84;67.99;19740.69;5054329;28;20185;-56
2023/05/17 04:46:01;;;;;;;6.00;3.30;;;8.40;99.90;;;-141.84;67.30;19767.09;5054192;28;20207;-57
2023/05/17 04:48:33;;;;;;;6.73;2.90;;;8.60;99.90;;;-141.84;67.44;19752.88;5054166;28;20197;-55
2023/05/17 04:51:02;;;;;;;4.90;3.37;;;8.70;99.90;;;-141.84;67.00;19805.72;5053711;28;20706;-57
2023/05/17 04:53:31;;;;;;;4.77;3.10;;;9.00;99.90;;;-141.84;65.25;19980.50;5053903;28;20189;-56
2023/05/17 04:55:59;;;;;;;4.27;3.17;;;9.60;99.90;;;-141.84;57.35;20216.25;5054102;28;20198;-55
2023/05/17 04:58:27;;;;;;;5.67;2.73;;;10.50;99.90;;;-141.84;54.69;20348.38;5043186;28;20297;-57
2023/05/17 05:00:56;;;;;;;5.17;2.73;;;11.40;99.90;;;-141.84;50.71;20561.81;5070984;28;20200;-58
2023/05/17 05:03:25;;;;;;;4.60;2.67;;;12.40;99.90;;;-141.84;48.64;20702.09;5065098;28;20570;-58
2023/05/17 05:05:54;;;;;;;6.28;3.22;;;13.20;99.90;;;-141.84;47.53;20817.94;5034070;28;20256;-58
2023/05/17 05:08:23;;;;;;;6.72;2.90;;;13.60;99.90;;;-141.84;46.21;20878.94;5033985;28;20201;-57
2023/05/17 05:10:51;;;;;;;5.53;3.05;;;14.10;99.90;;;-141.84;45.02;21000.91;5034112;28;20294;-58
2023/05/17 05:13:19;;;;;;;6.30;2.80;;;14.30;99.90;;;-141.84;44.29;21007.00;5033540;28;20704;-56
2023/05/17 05:15:47;;;;;;;8.35;2.95;;;14.60;99.90;;;-141.84;44.44;20982.63;5033544;28;20237;-59
2023/05/17 05:18:15;;;;;;;4.93;2.95;;;14.40;99.90;;;-141.84;45.71;20905.38;5033742;28;20213;-58
2023/05/17 05:20:43;;;;;;;7.03;3.30;;;14.40;99.90;;;-141.84;46.00;20858.59;5033938;28;20202;-55
2023/05/17 05:23:13;;;;;;;5.22;3.00;;;14.00;99.90;;;-141.84;47.26;20744.78;5033176;28;20694;-58
2023/05/17 05:25:43;;;;;;;5.75;3.05;;;13.90;99.90;;;-141.84;49.14;20618.72;5033623;28;20206;-56
2023/05/17 05:28:11;;;;;;;6.97;3.05;;;13.60;99.90;;;-141.84;50.95;20521.16;5033327;28;20228;-57
2023/05/17 05:30:40;;;;;;;5.45;3.47;;;13.30;99.90;;;-141.84;52.49;20403.25;5060571;28;20205;-57
2023/05/17 05:33:08;;;;;;;5.50;3.20;;;12.80;99.90;;;-141.84;54.17;20293.50;5032883;28;20714;-58
2023/05/17 05:35:36;;;;;;;6.70;3.33;;;12.30;99.90;;;-141.84;55.54;20248.78;5033587;28;20206;-57
2023/05/17 05:38:05;;;;;;;7.93;3.80;;;12.00;99.90;;;-141.84;55.28;20307.72;5033324;28;20849;-56
2023/05/17 05:40:35;;;;;;;6.83;3.47;;;11.80;99.90;;;-141.84;55.18;20301.63;5033437;28;20202;-55
2023/05/17 05:43:03;;;;;;;6.77;3.43;;;11.90;99.90;;;-141.84;55.92;20242.69;5051034;28;20491;-57
2023/05/17 05:45:31;;;;;;;7.00;3.27;;;11.80;99.90;;;-141.84;56.79;20214.22;5052868;28;20684;-57
2023/05/17 05:47:59;;;;;;;8.17;4.33;;;11.70;99.90;;;-141.84;56.97;20179.69;5052695;28;20632;-56
2023/05/17 05:50:28;;;;;;;7.20;4.13;;;11.50;99.90;;;-141.84;57.86;20179.69;5053071;28;20215;-57
2023/05/17 05:53:00;;;;;;;5.90;3.50;;;11.50;99.90;;;-141.84;57.91;20202.03;5052168;28;20259;-59
2023/05/17 05:55:46;;;;;;;5.47;3.33;;;11.60;99.90;;;-141.84;57.52;20236.59;5035269;28;20292;-57
2023/05/17 05:58:14;;;;;;;9.37;3.90;;;11.80;99.90;;;-141.84;57.28;20240.66;5032753;28;20202;-57
2023/05/17 06:00:42;;;;;;;6.97;4.07;;;12.00;99.90;;;-141.84;56.54;20226.44;5039816;28;20206;-57
2023/05/17 06:03:10;;;;;;;7.23;3.67;;;12.20;99.90;;;-141.84;56.72;20242.69;5032358;28;20600;-59
2023/05/17 06:05:41;;;;;;;8.37;3.80;;;12.20;99.90;;;-141.84;57.31;20271.16;5032577;28;20670;-58
2023/05/17 06:08:09;;;;;;;6.83;3.60;;;12.20;99.90;;;-141.84;57.43;20234.56;5032493;28;20201;-56
2023/05/17 06:10:37;;;;;;;8.93;3.93;;;12.20;99.90;;;-141.84;56.84;20244.72;5031865;28;20324;-58
2023/05/17 06:13:08;;;;;;;8.70;3.80;;;12.20;99.90;;;-141.84;57.10;20240.66;5032694;28;20680;-57
2023/05/17 06:15:36;;;;;;;5.17;3.67;;;12.30;99.90;;;-141.84;57.15;20220.34;5032138;28;20206;-55
2023/05/17 06:18:05;;;;;;;6.40;3.47;;;12.20;99.90;;;-141.84;57.78;20234.56;5032104;28;20666;-58
2023/05/17 06:20:33;;;;;;;8.67;4.00;;;12.50;99.90;;;-141.84;56.89;20275.22;5032688;28;20292;-57
2023/05/17 06:23:03;;;;;;;9.53;4.67;;;12.40;99.90;;;-141.84;57.41;20315.88;5032208;28;20658;-58
2023/05/17 06:25:32;;;;;;;11.00;4.47;;;12.60;99.90;;;-141.84;56.89;20291.47;5032090;28;20194;-56
2023/05/17 06:28:01;;;;;;;8.97;4.10;;;12.70;99.90;;;-141.84;57.13;20309.75;5043973;28;20661;-59
2023/05/17 06:30:31;;;;;;;8.70;3.50;;;12.80;99.90;;;-141.84;55.35;20340.25;5066447;28;20213;-58
2023/05/17 06:33:00;;;;;;;5.43;3.47;;;12.80;99.90;;;-141.84;54.66;20376.84;5056468;28;20225;-56
2023/05/17 06:35:28;;;;;;;7.93;4.00;;;13.00;99.90;;;-141.84;53.90;20413.44;5052623;28;20712;-58
2023/05/17 06:38:04;;;;;;;9.85;3.90;;;13.00;99.90;;;-141.84;53.52;20411.41;5053044;28;20224;-57
2023/05/17 06:40:32;;;;;;;8.63;4.35;;;13.20;99.90;;;-141.84;53.19;20364.66;5052884;28;20210;-57
2023/05/17 06:43:01;;;;;;;7.43;3.90;;;13.00;99.90;;;-141.84;53.75;20340.25;5052803;28;20221;-59
2023/05/17 06:45:30;;;;;;;7.18;3.80;;;12.90;99.90;;;-141.84;53.64;20364.66;5052406;28;20206;-56
2023/05/17 06:47:59;;;;;;;9.60;4.37;;;12.70;99.90;;;-141.84;52.71;20350.41;5052759;28;20207;-57
2023/05/17 06:50:27;;;;;;;9.40;3.97;;;12.80;99.90;;;-141.84;52.89;20362.63;5047375;28;20736;-58
2023/05/17 06:52:56;;;;;;;10.53;3.90;;;12.80;99.90;;;-141.84;52.96;20378.88;5049030;28;20197;-58
2023/05/17 06:55:24;;;;;;;8.43;3.70;;;12.90;99.90;;;-141.84;53.17;20358.56;5052396;28;20562;-57
2023/05/17 06:57:52;;;;;;;7.35;3.95;;;12.90;99.90;;;-141.84;53.03;20364.66;5032658;28;20202;-57
2023/05/17 07:00:20;;;;;;;6.83;4.07;;;12.80;99.90;;;-141.84;53.06;20330.09;5059616;28;20303;-57
2023/05/17 07:02:50;;;;;;;12.20;3.87;;;12.80;99.90;;;-141.84;53.27;20303.66;5072349;28;20228;-57
2023/05/17 07:05:19;;;;;;;6.93;3.57;;;12.60;99.90;;;-141.84;54.06;20232.53;5072284;28;20205;-57
2023/05/17 07:07:47;;;;;;;8.73;4.13;;;12.30;99.90;;;-141.84;54.64;20242.69;5072345;28;20649;-57
2023/05/17 07:10:15;;;;;;;8.77;3.50;;;12.20;99.90;;;-141.84;54.13;20238.63;5072530;28;20292;-57
2023/05/17 07:12:44;;;;;;;7.70;3.87;;;12.10;99.90;;;-141.84;53.79;20269.13;5072208;28;20250;-56
2023/05/17 07:15:12;;;;;;;11.77;3.80;;;12.20;99.90;;;-141.84;52.42;20297.56;5058429;28;20285;-59
2023/05/17 07:17:40;;;;;;;7.23;3.53;;;12.40;99.90;;;-141.84;52.58;20291.47;5032442;28;20202;-56
2023/05/17 07:20:13;;;;;;;11.00;3.60;;;12.50;99.90;;;-141.84;53.43;20269.13;5032355;28;20209;-58
2023/05/17 07:22:41;;;;;;;8.53;3.43;;;12.40;99.90;;;-141.84;53.41;20236.59;5031898;28;20267;-57
2023/05/17 07:25:10;;;;;;;7.23;3.00;;;12.40;99.90;;;-141.84;51.28;20311.78;5050931;28;20244;-57
2023/05/17 07:27:38;;;;;;;8.10;2.93;;;12.40;99.90;;;-141.84;50.81;20260.97;5052487;28;20297;-57
2023/05/17 07:30:08;;;;;;;7.93;2.90;;;12.50;99.90;;;-141.84;51.10;20307.72;5063787;28;20205;-57
2023/05/17 07:32:36;;;;;;;8.87;3.43;;;12.50;99.90;;;-141.84;51.96;20303.66;5059024;28;20255;-55
2023/05/17 07:35:05;;;;;;;11.33;3.40;;;12.50;99.90;;;-141.84;52.50;20267.09;5052195;28;20197;-57
2023/05/17 07:37:35;;;;;;;8.17;2.83;;;12.30;99.90;;;-141.84;51.71;20285.38;5052641;28;20292;-57
2023/05/17 07:40:05;;;;;;;7.60;2.90;;;12.20;99.90;;;-141.84;51.35;20321.97;5051856;28;20200;-55
2023/05/17 07:42:33;;;;;;;7.57;2.83;;;12.40;99.90;;;-141.84;49.24;20372.78;5052365;28;20275;-56
2023/05/17 07:45:01;;;;;;;8.40;2.67;;;12.70;99.90;;;-141.84;48.68;20452.06;5052260;28;20292;-56
2023/05/17 07:47:30;;;;;;;5.87;2.60;;;13.00;99.90;;;-141.84;47.99;20478.47;5040382;28;20293;-58
2023/05/17 07:49:59;;;;;;;5.73;2.40;;;13.40;99.90;;;-141.84;47.72;20543.53;5031800;28;20210;-57
2023/05/17 07:52:27;;;;;;;8.13;2.88;;;13.60;99.90;;;-141.84;47.08;20553.69;5044667;28;20221;-58
2023/05/17 07:54:56;;;;;;;9.63;2.60;;;13.70;99.90;;;-141.84;48.13;20496.78;5051426;28;20701;-56
2023/05/17 07:57:26;;;;;;;7.90;2.57;;;13.60;99.90;;;-141.84;48.43;20476.44;5052159;28;20288;-57
2023/05/17 07:59:54;;;;;;;7.87;2.47;;;13.60;99.90;;;-141.84;47.13;20488.63;5061656;28;20258;-57
2023/05/17 08:02:22;;;;;;;4.80;2.10;;;13.50;99.90;;;-141.84;46.74;20490.66;5071797;28;20291;-57
2023/05/17 08:04:50;;;;;;;5.95;2.33;;;13.60;99.90;;;-141.84;46.24;20525.22;5071794;28;20566;-56
2023/05/17 08:07:19;;;;;;;5.38;1.98;;;13.70;99.90;;;-141.84;45.19;20576.03;5071587;28;20205;-56
2023/05/17 08:09:47;;;;;;;8.23;2.60;;;13.80;99.90;;;-141.84;46.29;20533.34;5071730;28;20254;-56
2023/05/17 08:12:16;;;;;;;4.68;2.15;;;13.80;99.90;;;-141.84;45.98;20545.56;5071845;28;20205;-58
2023/05/17 08:14:45;;;;;;;7.50;2.33;;;13.70;99.90;;;-141.84;46.16;20545.56;5065478;28;20194;-57
2023/05/17 08:17:13;;;;;;;5.63;2.33;;;13.80;99.90;;;-141.84;46.41;20529.28;5031173;28;20210;-58
2023/05/17 08:19:41;;;;;;;5.80;2.40;;;13.70;99.90;;;-141.84;46.24;20472.38;5036138;28;20237;-55
2023/05/17 08:22:10;;;;;;;4.88;1.90;;;13.60;99.90;;;-141.84;45.80;20592.31;5051443;28;20274;-55
2023/05/17 08:24:38;;;;;;;5.97;2.10;;;13.90;99.90;;;-141.84;43.87;20612.63;5051401;28;20308;-56
2023/05/17 08:27:06;;;;;;;6.60;2.25;;;14.00;99.90;;;-141.84;43.90;20576.03;5050968;28;20236;-56
2023/05/17 08:29:36;;;;;;;3.95;2.22;;;14.10;99.90;;;-141.84;44.40;20586.22;5058970;28;20266;-58
2023/05/17 08:32:07;;;;;;;6.45;2.55;;;14.00;99.90;;;-141.84;45.67;20531.31;5062650;28;20233;-57
2023/05/17 08:34:36;;;;;;;6.85;2.58;;;13.70;99.90;;;-141.84;46.12;20511.00;5054618;28;20292;-58
2023/05/17 08:37:05;;;;;;;7.67;2.50;;;13.70;99.90;;;-141.84;46.95;20480.50;5055214;28;20630;-56
2023/05/17 08:39:33;;;;;;;5.63;2.50;;;13.40;99.90;;;-141.84;46.64;20427.66;5054986;28;20205;-58
2023/05/17 08:42:02;;;;;;;4.27;2.07;;;13.40;99.90;;;-141.84;47.20;20439.84;5055098;28;20255;-57
2023/05/17 08:44:31;;;;;;;5.80;2.22;;;13.30;99.90;;;-141.84;46.61;20515.06;5036865;28;20321;-57
2023/05/17 08:47:03;;;;;;;5.68;2.55;;;13.50;99.90;;;-141.84;44.81;20557.75;5034636;28;20229;-57
2023/05/17 08:49:33;;;;;;;7.35;2.60;;;13.70;99.90;;;-141.84;44.33;20571.97;5035149;28;20209;-58
2023/05/17 08:52:08;;;;;;;7.53;2.63;;;13.80;99.90;;;-141.84;44.97;20553.69;5044402;28;20193;-55
2023/05/17 08:54:36;;;;;;;9.70;2.50;;;13.90;99.90;;;-141.84;45.68;20537.44;5055519;28;20189;-72
2023/05/17 08:57:06;;;;;;;7.63;2.42;;;13.70;99.90;;;-141.84;46.17;20511.00;5054828;28;20202;-73
2023/05/17 08:59:36;;;;;;;6.43;2.60;;;13.50;99.90;;;-141.84;45.82;20474.41;5062145;28;20239;-74
2023/05/17 09:02:06;;;;;;;7.75;2.70;;;13.40;99.90;;;-141.84;44.90;20488.63;5071370;28;20237;-74
2023/05/17 09:04:35;;;;;;;6.45;2.60;;;13.40;99.90;;;-141.84;44.90;20435.78;5054082;28;20696;-72
2023/05/17 09:07:03;;;;;;;10.10;2.80;;;13.30;99.90;;;-141.84;45.19;20466.28;5054337;28;20240;-73
2023/05/17 09:09:32;;;;;;;8.10;2.30;;;13.20;99.90;;;-141.84;45.09;20523.19;5054387;28;20251;-73
2023/05/17 09:12:03;;;;;;;6.63;2.10;;;13.40;99.90;;;-141.84;44.38;20561.81;5054529;28;20240;-74
2023/05/17 09:14:34;;;;;;;6.85;2.38;;;13.60;99.90;;;-141.84;44.19;20606.53;5052941;28;20236;-72
2023/05/17 09:17:03;;;;;;;7.75;2.45;;;13.70;99.90;;;-141.84;43.85;20667.53;5048181;28;20209;-73
2023/05/17 09:19:33;;;;;;;7.95;2.50;;;13.90;99.90;;;-141.84;44.08;20681.75;5053559;28;20636;-73
2023/05/17 09:22:01;;;;;;;6.70;2.17;;;14.10;99.90;;;-141.84;44.19;20726.47;5053816;28;20190;-73
2023/05/17 09:24:30;;;;;;;5.88;2.30;;;14.30;99.90;;;-141.84;43.53;20740.69;5053910;28;20232;-73
2023/05/17 09:27:03;;;;;;;6.88;2.10;;;14.60;99.90;;;-141.84;43.08;20752.91;5053785;28;20621;-73
2023/05/17 09:29:32;;;;;;;6.20;2.20;;;14.70;99.90;;;-141.84;42.79;20787.47;5060965;28;20254;-73
2023/05/17 09:32:13;;;;;;;6.32;2.08;;;14.80;99.90;;;-141.84;42.58;20752.91;5066077;28;20308;-74
2023/05/17 09:34:47;;;;;;;6.22;1.90;;;14.70;99.90;;;-141.84;42.92;20728.50;5055128;28;20209;-73
2023/05/17 09:37:17;;;;;;;6.45;2.25;;;14.60;99.90;;;-141.84;42.23;20801.69;5054091;28;20590;-73
2023/05/17 09:39:47;;;;;;;7.43;2.20;;;14.90;99.90;;;-141.84;41.22;20761.03;5053980;28;20277;-73
2023/05/17 09:42:17;;;;;;;7.07;2.25;;;14.90;99.90;;;-141.84;41.90;20734.59;5053828;28;20196;-73
2023/05/17 09:44:48;;;;;;;5.30;2.00;;;14.90;99.90;;;-141.84;42.49;20732.56;5048169;28;20246;-74
2023/05/17 09:47:27;;;;;;;5.60;2.13;;;14.80;99.90;;;-141.84;42.60;20771.19;5033651;28;20631;-74
2023/05/17 09:50:02;;;;;;;8.30;2.30;;;14.90;99.90;;;-141.84;41.08;20828.13;5034128;28;20231;-72
2023/05/17 09:52:31;;;;;;;6.20;1.90;;;14.90;99.90;;;-141.84;41.17;20805.75;5046957;28;20189;-73
2023/05/17 09:55:01;;;;;;;6.40;2.13;;;15.00;99.90;;;-141.84;41.18;20726.47;5049335;28;20596;-73
2023/05/17 09:57:37;;;;;;;7.60;2.25;;;14.90;99.90;;;-141.84;41.98;20716.31;5051950;28;20209;-74
2023/05/17 10:00:10;;;;;;;9.10;2.20;;;14.70;99.90;;;-141.84;42.50;20695.97;5055866;28;20296;-73
2023/05/17 10:02:41;;;;;;;6.97;2.28;;;14.70;99.90;;;-141.84;42.49;20702.09;5044788;28;20202;-75
2023/05/17 10:05:14;;;;;;;8.40;2.13;;;14.60;99.90;;;-141.84;42.85;20665.50;5046954;28;20291;-73
2023/05/17 10:07:42;;;;;;;7.97;2.40;;;14.60;99.90;;;-141.84;43.13;20698.00;5039946;28;20614;-75
2023/05/17 10:10:12;;;;;;;8.13;2.35;;;14.40;99.90;;;-141.84;43.30;20773.22;5036199;28;20245;-73
2023/05/17 10:12:41;;;;;;;8.38;2.63;;;14.80;99.90;;;-141.84;41.89;20836.25;5041530;28;20221;-73
2023/05/17 10:15:12;;;;;;;4.55;2.13;;;14.90;99.90;;;-141.84;40.41;20817.94;5036782;28;20237;-74
2023/05/17 10:17:41;;;;;;;6.40;2.33;;;15.10;99.90;;;-141.84;40.48;20854.53;5030941;28;20604;-74